Time;durP1;ratioP1;P1;durP2;ratioP2;P2;SDS_P1;SDS_P2;PMS_P1;PMS_P2;Temp;Humidity;BMP_temperature;BMP_pressure;BME280_temperature;BME280_humidity;BME280_pressure;Samples;Min_cycle;Max_cycle;Signal;HPM_P1;HPM_P2
2023/08/25 00:00:39;;;;;;;;;;;;;;;28.27;45.24;100864.81;4947496;28;19952;-65
2023/08/25 00:03:05;;;;;;;;;;;;;;;28.29;45.27;100868.06;4999663;28;19988;-65
2023/08/25 00:05:35;;;;;;;;;;;;;;;28.31;45.28;100865.16;4963487;28;19939;-65
2023/08/25 00:08:00;;;;;;;;;;;;;;;28.29;45.27;100861.91;5017271;28;19969;-65
2023/08/25 00:10:25;;;;;;;;;;;;;;;28.30;45.34;100860.84;4953374;28;20709;-65
2023/08/25 00:12:51;;;;;;;;;;;;;;;28.26;45.40;100855.16;4983107;28;19945;-64
2023/08/25 00:15:16;;;;;;;;;;;;;;;28.26;45.40;100862.38;5000641;28;19938;-64
2023/08/25 00:17:43;;;;;;;;;;;;;;;28.26;45.35;100865.06;4989374;28;20420;-65
2023/08/25 00:20:12;;;;;;;;;;;;;;;28.26;45.36;100865.88;4946316;28;19945;-70
2023/08/25 00:22:38;;;;;;;;;;;;;;;28.28;45.25;100869.13;4997790;28;19944;-70
2023/08/25 00:25:03;;;;;;;;;;;;;;;28.24;45.36;100859.91;4944206;28;20411;-70
2023/08/25 00:27:29;;;;;;;;;;;;;;;28.27;45.24;100867.50;4996976;28;20499;-70
2023/08/25 00:29:54;;;;;;;;;;;;;;;28.25;45.38;100864.25;4941517;28;19965;-64
2023/08/25 00:32:19;;;;;;;;;;;;;;;28.25;45.27;100863.41;5002827;28;20052;-64
2023/08/25 00:34:45;;;;;;;;;;;;;;;28.28;45.30;100874.47;4942541;28;20056;-64
2023/08/25 00:37:11;;;;;;;;;;;;;;;28.30;45.34;100863.53;4987344;28;19947;-65
2023/08/25 00:39:38;;;;;;;;;;;;;;;28.25;45.36;100864.25;4994168;28;19951;-64
2023/08/25 00:42:04;;;;;;;;;;;;;;;28.24;45.44;100862.59;4938711;28;20322;-70
2023/08/25 00:44:29;;;;;;;;;;;;;;;28.28;45.28;100862.94;5001767;28;19977;-70
2023/08/25 00:46:55;;;;;;;;;;;;;;;28.28;45.21;100860.28;4945446;28;20320;-70
2023/08/25 00:49:21;;;;;;;;;;;;;;;28.26;45.42;100865.88;5006288;28;19957;-69
2023/08/25 00:51:46;;;;;;;;;;;;;;;28.26;45.21;100867.72;4945943;28;19944;-64
2023/08/25 00:54:12;;;;;;;;;;;;;;;28.27;45.36;100874.72;5003390;28;19935;-65
2023/08/25 00:56:38;;;;;;;;;;;;;;;28.26;45.28;100873.91;4944014;28;20037;-67
2023/08/25 00:59:04;;;;;;;;;;;;;;;28.30;45.34;100876.91;5002958;28;19942;-67
2023/08/25 01:01:30;;;;;;;;;;;;;;;28.30;45.30;100882.28;4975632;28;20659;-67
2023/08/25 01:03:56;;;;;;;;;;;;;;;28.28;45.31;100882.50;4994271;28;19989;-67
2023/08/25 01:06:22;;;;;;;;;;;;;;;28.27;45.25;100886.25;4947208;28;20370;-67
2023/08/25 01:08:47;;;;;;;;;;;;;;;28.28;45.38;100887.06;5031620;28;19941;-67
2023/08/25 01:11:19;;;;;;;;;;;;;;;28.28;45.22;100884.38;4938303;28;20400;-70
2023/08/25 01:13:47;;;;;;;;;;;;;;;28.25;45.27;100888.34;5026110;28;19929;-69
2023/08/25 01:16:16;;;;;;;;;;;;;;;28.28;45.24;100887.06;4951530;28;19943;-65
2023/08/25 01:18:42;;;;;;;;;;;;;;;28.25;45.43;100883.00;4975027;28;19970;-70
2023/08/25 01:21:08;;;;;;;;;;;;;;;28.26;45.29;100883.81;5009688;28;19938;-69
2023/08/25 01:23:34;;;;;;;;;;;;;;;28.25;45.36;100888.34;4942978;28;19954;-65
2023/08/25 01:26:00;;;;;;;;;;;;;;;28.23;45.51;100878.88;5001169;28;19957;-65
2023/08/25 01:28:26;;;;;;;;;;;;;;;28.25;45.54;100880.31;4953289;28;19982;-70
2023/08/25 01:30:54;;;;;;;;;;;;;;;28.24;45.30;100870.63;4996108;28;19960;-70
2023/08/25 01:33:21;;;;;;;;;;;;;;;28.25;45.32;100877.63;4956300;28;20553;-67
2023/08/25 01:35:46;;;;;;;;;;;;;;;28.26;45.40;100886.47;4988609;28;19972;-66
2023/08/25 01:38:15;;;;;;;;;;;;;;;28.25;45.42;100876.78;4999003;28;20027;-67
2023/08/25 01:41:04;;;;;;;;;;;;;;;28.25;45.40;100883.00;4997844;28;19953;-68
2023/08/25 01:43:36;;;;;;;;;;;;;;;28.26;45.42;100883.81;4980872;28;19946;-68
2023/08/25 01:46:08;;;;;;;;;;;;;;;28.09;45.28;100854.22;4965704;28;20023;-67
2023/08/25 01:48:34;;;;;;;;;;;;;;;28.25;45.40;100880.31;5003091;28;19949;-68
2023/08/25 01:51:02;;;;;;;;;;;;;;;28.11;45.52;100857.47;4961132;28;20021;-64
2023/08/25 01:53:31;;;;;;;;;;;;;;;28.25;45.47;100876.78;5001279;28;19961;-67
2023/08/25 01:55:56;;;;;;;;;;;;;;;28.07;45.51;100850.16;4982823;28;19947;-67
2023/08/25 01:58:21;;;;;;;;;;;;;;;28.23;45.44;100879.69;5003062;28;19930;-68
2023/08/25 02:00:47;;;;;;;;;;;;;;;28.24;45.41;100877.84;4972695;28;19951;-65
2023/08/25 02:03:13;;;;;;;;;;;;;;;28.24;45.41;100877.84;5008128;28;19931;-65
2023/08/25 02:05:40;;;;;;;;;;;;;;;28.23;45.47;100879.69;4950575;28;19952;-69
2023/08/25 02:08:05;;;;;;;;;;;;;;;28.22;45.51;100875.41;5009181;28;20469;-70
2023/08/25 02:10:32;;;;;;;;;;;;;;;28.24;45.29;100878.66;4951750;28;20322;-67
2023/08/25 02:12:58;;;;;;;;;;;;;;;28.25;45.39;100874.97;4995832;28;19962;-67
2023/08/25 02:15:23;;;;;;;;;;;;;;;28.21;45.42;100879.13;4954948;28;21400;-70
2023/08/25 02:17:48;;;;;;;;;;;;;;;28.24;45.36;100861.78;4999517;28;19936;-69
2023/08/25 02:20:14;;;;;;;;;;;;;;;28.25;45.48;100866.06;5006803;28;19955;-70
2023/08/25 02:22:39;;;;;;;;;;;;;;;28.23;45.32;100866.31;4991431;28;20056;-69
2023/08/25 02:25:05;;;;;;;;;;;;;;;28.21;45.59;100860.38;4943239;28;20029;-65
2023/08/25 02:27:31;;;;;;;;;;;;;;;28.21;45.50;100859.56;4994438;28;19955;-65
2023/08/25 02:29:56;;;;;;;;;;;;;;;28.21;45.39;100856.88;4948516;28;20395;-65
2023/08/25 02:32:23;;;;;;;;;;;;;;;28.21;45.45;100851.53;5025546;28;19962;-65
2023/08/25 02:34:48;;;;;;;;;;;;;;;28.23;45.42;100857.47;4937667;28;19952;-64
2023/08/25 02:37:14;;;;;;;;;;;;;;;28.23;45.38;100855.59;4980148;28;20018;-64
2023/08/25 02:39:39;;;;;;;;;;;;;;;28.22;45.42;100856.66;5001305;28;19964;-64
2023/08/25 02:42:05;;;;;;;;;;;;;;;28.26;45.31;100857.84;4937143;28;20395;-67
2023/08/25 02:44:30;;;;;;;;;;;;;;;28.22;45.48;100853.97;5033916;28;20396;-67
2023/08/25 02:46:56;;;;;;;;;;;;;;;28.19;45.53;100849.09;4934974;28;19949;-67
2023/08/25 02:49:21;;;;;;;;;;;;;;;28.23;45.36;100850.25;5001180;28;20016;-67
2023/08/25 02:51:47;;;;;;;;;;;;;;;28.23;45.44;100852.94;4983413;28;19983;-68
2023/08/25 02:54:12;;;;;;;;;;;;;;;28.23;45.38;100849.44;4986215;28;19941;-68
2023/08/25 02:56:38;;;;;;;;;;;;;;;28.22;45.39;100847.81;5016454;28;20082;-68
2023/08/25 02:59:07;;;;;;;;;;;;;;;28.17;45.47;100835.09;4945772;28;19945;-68
2023/08/25 03:01:33;;;;;;;;;;;;;;;28.20;45.47;100837.34;4996142;28;19937;-67
2023/08/25 03:04:02;;;;;;;;;;;;;;;28.07;45.42;100821.50;4981367;28;19968;-65
2023/08/25 03:06:28;;;;;;;;;;;;;;;28.25;45.41;100837.47;5000672;28;19945;-65
2023/08/25 03:09:04;;;;;;;;;;;;;;;28.09;45.44;100814.06;5011916;28;20312;-64
2023/08/25 03:11:32;;;;;;;;;;;;;;;28.21;45.36;100836.28;4975767;28;20308;-70
2023/08/25 03:14:01;;;;;;;;;;;;;;;28.22;45.48;100826.38;5029767;28;19964;-69
2023/08/25 03:16:27;;;;;;;;;;;;;;;28.21;45.46;100830.94;4946944;28;20651;-65
2023/08/25 03:18:52;;;;;;;;;;;;;;;28.20;45.47;100823.94;4996575;28;19950;-65
2023/08/25 03:21:17;;;;;;;;;;;;;;;28.22;45.44;100826.38;4988292;28;21214;-65
2023/08/25 03:23:43;;;;;;;;;;;;;;;28.21;45.41;100825.56;4996309;28;20645;-65
2023/08/25 03:26:12;;;;;;;;;;;;;;;28.10;45.36;100804.97;4965360;28;20063;-64
2023/08/25 03:28:38;;;;;;;;;;;;;;;28.22;45.59;100823.72;4998955;28;19973;-65
2023/08/25 03:31:03;;;;;;;;;;;;;;;28.23;45.47;100825.34;4945326;28;21946;-65
2023/08/25 03:33:30;;;;;;;;;;;;;;;28.23;45.29;100834.19;4996961;28;20416;-64
2023/08/25 03:36:11;;;;;;;;;;;;;;;28.24;45.41;100827.78;4970246;28;20001;-65
2023/08/25 03:38:36;;;;;;;;;;;;;;;28.24;45.38;100824.28;4985015;28;20683;-65
2023/08/25 03:41:01;;;;;;;;;;;;;;;28.22;45.50;100821.03;5002596;28;19933;-64
2023/08/25 03:43:27;;;;;;;;;;;;;;;28.21;45.39;100817.53;4965014;28;20006;-70
2023/08/25 03:45:52;;;;;;;;;;;;;;;28.21;45.45;100822.09;5017879;28;20424;-70
2023/08/25 03:48:18;;;;;;;;;;;;;;;28.22;45.37;100819.16;4960944;28;19944;-69
2023/08/25 03:50:47;;;;;;;;;;;;;;;28.23;45.27;100828.81;5003624;28;20351;-69
2023/08/25 03:53:13;;;;;;;;;;;;;;;28.21;45.58;100830.94;4975063;28;19952;-69
2023/08/25 03:55:38;;;;;;;;;;;;;;;28.18;45.37;100820.66;5020993;28;20309;-70
2023/08/25 03:58:03;;;;;;;;;;;;;;;28.17;45.60;100824.41;4953775;28;20452;-67
2023/08/25 04:00:29;;;;;;;;;;;;;;;28.19;45.58;100829.53;5002854;28;20301;-66
2023/08/25 04:02:54;;;;;;;;;;;;;;;28.19;45.51;100818.84;4987490;28;19946;-64
2023/08/25 04:05:20;;;;;;;;;;;;;;;28.21;45.42;100828.25;5002495;28;20346;-64
2023/08/25 04:07:45;;;;;;;;;;;;;;;28.19;45.54;100826.88;4955633;28;20045;-65
2023/08/25 04:10:10;;;;;;;;;;;;;;;28.20;45.47;100826.63;5010771;28;20040;-65
2023/08/25 04:12:36;;;;;;;;;;;;;;;28.19;45.50;100821.50;4944674;28;19948;-66
2023/08/25 04:15:01;;;;;;;;;;;;;;;28.19;45.46;100822.31;5000151;28;20408;-65
2023/08/25 04:17:29;;;;;;;;;;;;;;;28.20;45.49;100821.28;4963732;28;19946;-64
2023/08/25 04:19:54;;;;;;;;;;;;;;;28.17;45.40;100816.38;5010886;28;19936;-64
2023/08/25 04:22:20;;;;;;;;;;;;;;;28.21;45.39;100817.53;4954147;28;20058;-67
2023/08/25 04:24:46;;;;;;;;;;;;;;;28.18;45.45;100818.00;4983635;28;19936;-69
2023/08/25 04:27:12;;;;;;;;;;;;;;;28.21;45.41;100811.38;5012958;28;20775;-70
2023/08/25 04:29:37;;;;;;;;;;;;;;;28.20;45.39;100815.09;4984309;28;19957;-70
2023/08/25 04:32:03;;;;;;;;;;;;;;;28.19;45.50;100808.13;4941632;28;19998;-70
2023/08/25 04:34:35;;;;;;;;;;;;;;;28.18;45.47;100812.63;5006751;28;19992;-70
2023/08/25 04:37:01;;;;;;;;;;;;;;;28.20;45.46;100807.06;4947073;28;20631;-67
2023/08/25 04:39:26;;;;;;;;;;;;;;;28.19;45.40;100806.25;5030535;28;19944;-67
2023/08/25 04:41:52;;;;;;;;;;;;;;;28.20;45.39;100805.22;4956772;28;19947;-65
2023/08/25 04:44:17;;;;;;;;;;;;;;;28.16;45.56;100808.56;5010980;28;20034;-65
2023/08/25 04:46:43;;;;;;;;;;;;;;;28.20;45.50;100804.41;4977187;28;19938;-68
2023/08/25 04:49:09;;;;;;;;;;;;;;;28.17;45.46;100800.28;5011257;28;20017;-65
2023/08/25 04:51:35;;;;;;;;;;;;;;;28.17;45.31;100797.63;5000835;28;20024;-65
2023/08/25 04:54:03;;;;;;;;;;;;;;;28.20;45.38;100796.38;4973608;28;20455;-67
2023/08/25 04:56:28;;;;;;;;;;;;;;;28.19;45.45;100797.41;5010483;28;19945;-67
2023/08/25 04:58:54;;;;;;;;;;;;;;;28.18;45.40;100796.56;4980602;28;20307;-65
2023/08/25 05:01:19;;;;;;;;;;;;;;;28.18;45.39;100787.72;5003435;28;19957;-64
2023/08/25 05:03:45;;;;;;;;;;;;;;;28.19;45.36;100794.75;4978204;28;20324;-70
2023/08/25 05:06:11;;;;;;;;;;;;;;;28.20;45.47;100802.53;5006806;28;19983;-65
2023/08/25 05:08:37;;;;;;;;;;;;;;;28.19;45.37;100792.06;5027169;28;20401;-65
2023/08/25 05:11:03;;;;;;;;;;;;;;;28.18;45.52;100796.56;4966627;28;22053;-64
2023/08/25 05:13:28;;;;;;;;;;;;;;;28.23;45.44;100793.22;5026744;28;19940;-64
2023/08/25 05:15:55;;;;;;;;;;;;;;;28.08;45.28;100783.00;4985242;28;19956;-64
2023/08/25 05:18:41;;;;;;;;;;;;;;;28.21;45.24;100808.69;4971774;28;19941;-70
2023/08/25 05:21:07;;;;;;;;;;;;;;;28.18;45.50;100807.28;4948856;28;20939;-68
2023/08/25 05:23:33;;;;;;;;;;;;;;;28.19;45.29;100816.97;4994641;28;19990;-67
2023/08/25 05:25:58;;;;;;;;;;;;;;;28.20;45.30;100818.59;4988636;28;19947;-70
2023/08/25 05:28:24;;;;;;;;;;;;;;;28.24;45.27;100816.25;5024840;28;19950;-70
2023/08/25 05:30:49;;;;;;;;;;;;;;;28.21;45.29;100817.53;4952288;28;19960;-70
2023/08/25 05:33:20;;;;;;;;;;;;;;;28.19;45.30;100819.66;5001542;28;19956;-69
2023/08/25 05:36:04;;;;;;;;;;;;;;;28.21;45.31;100824.75;4955341;28;20416;-64
2023/08/25 05:38:30;;;;;;;;;;;;;;;28.22;45.37;100821.84;5005424;28;19940;-64
2023/08/25 05:40:55;;;;;;;;;;;;;;;28.24;45.27;100826.97;4948585;28;20050;-65
2023/08/25 05:43:20;;;;;;;;;;;;;;;28.22;45.22;100829.88;4996186;28;20363;-65
2023/08/25 05:45:46;;;;;;;;;;;;;;;28.22;45.56;100823.72;4949596;28;19981;-65
2023/08/25 05:48:11;;;;;;;;;;;;;;;28.23;45.26;100833.38;5001833;28;20501;-67
2023/08/25 05:50:37;;;;;;;;;;;;;;;28.23;45.30;100833.38;4995814;28;19994;-67
2023/08/25 05:53:05;;;;;;;;;;;;;;;28.17;45.37;100829.75;4956402;28;19977;-63
2023/08/25 05:55:34;;;;;;;;;;;;;;;28.19;45.25;100834.91;5011700;28;20025;-64
2023/08/25 05:58:06;;;;;;;;;;;;;;;28.00;45.53;100802.88;4987100;28;20062;-66
2023/08/25 06:00:36;;;;;;;;;;;;;;;28.20;45.32;100829.31;5004223;28;19949;-67
2023/08/25 06:03:03;;;;;;;;;;;;;;;28.20;45.35;100831.97;4970192;28;19946;-67
2023/08/25 06:05:33;;;;;;;;;;;;;;;28.19;45.42;100832.22;4995287;28;19927;-67
2023/08/25 06:08:02;;;;;;;;;;;;;;;28.22;45.25;100834.41;4989831;28;20458;-67
2023/08/25 06:10:30;;;;;;;;;;;;;;;28.20;45.12;100836.53;4987313;28;19954;-67
2023/08/25 06:12:55;;;;;;;;;;;;;;;28.17;45.32;100824.41;4979070;28;19940;-67
2023/08/25 06:15:20;;;;;;;;;;;;;;;28.20;45.33;100820.47;5002737;28;19931;-68
2023/08/25 06:17:46;;;;;;;;;;;;;;;28.21;45.29;100822.91;4997939;28;20491;-68
2023/08/25 06:20:12;;;;;;;;;;;;;;;28.22;45.17;100821.84;4946337;28;20102;-67
2023/08/25 06:22:37;;;;;;;;;;;;;;;28.19;45.36;100822.31;5001976;28;19935;-67
2023/08/25 06:25:03;;;;;;;;;;;;;;;28.21;45.35;100824.75;4944021;28;20071;-64
2023/08/25 06:27:28;;;;;;;;;;;;;;;28.17;45.33;100818.22;4995216;28;20027;-64
2023/08/25 06:29:54;;;;;;;;;;;;;;;28.16;45.48;100821.94;4942343;28;20368;-69
2023/08/25 06:32:20;;;;;;;;;;;;;;;28.17;45.35;100821.72;4995246;28;20056;-70
2023/08/25 06:34:48;;;;;;;;;;;;;;;28.21;45.24;100812.19;4932491;28;19950;-65
2023/08/25 06:37:13;;;;;;;;;;;;;;;28.21;45.23;100817.53;4994774;28;19964;-65
2023/08/25 06:39:40;;;;;;;;;;;;;;;28.23;45.10;100811.94;4949149;28;19953;-70
2023/08/25 06:42:05;;;;;;;;;;;;;;;28.21;45.30;100809.50;4999402;28;19941;-70
2023/08/25 06:44:32;;;;;;;;;;;;;;;28.21;45.45;100806.03;4946905;28;19974;-66
2023/08/25 06:46:57;;;;;;;;;;;;;;;28.21;45.24;100803.34;4997463;28;19942;-67
2023/08/25 06:49:22;;;;;;;;;;;;;;;28.24;45.25;100803.69;4942991;28;22269;-66
2023/08/25 06:51:48;;;;;;;;;;;;;;;28.24;45.20;100811.72;5000208;28;20569;-66
2023/08/25 06:54:14;;;;;;;;;;;;;;;28.21;45.37;100822.91;5005125;28;19936;-65
2023/08/25 06:56:39;;;;;;;;;;;;;;;28.24;45.29;100819.75;4942799;28;19983;-67
2023/08/25 06:59:04;;;;;;;;;;;;;;;28.22;45.38;100813.81;5005009;28;19939;-66
2023/08/25 07:01:30;;;;;;;;;;;;;;;28.21;45.43;100804.16;4948253;28;20673;-67
2023/08/25 07:03:55;;;;;;;;;;;;;;;28.21;45.43;100808.69;4999371;28;19937;-66
2023/08/25 07:06:21;;;;;;;;;;;;;;;28.23;45.59;100819.97;4946461;28;20156;-69
2023/08/25 07:08:46;;;;;;;;;;;;;;;28.23;45.38;100809.28;4998367;28;20070;-69
2023/08/25 07:11:11;;;;;;;;;;;;;;;28.24;45.49;100808.22;4943802;28;19962;-70
2023/08/25 07:13:37;;;;;;;;;;;;;;;28.22;45.27;100815.69;4997695;28;19977;-71
2023/08/25 07:16:03;;;;;;;;;;;;;;;28.23;45.69;100817.31;4983206;28;20055;-68
2023/08/25 07:18:29;;;;;;;;;;;;;;;28.22;45.24;100816.50;4993271;28;19986;-69
2023/08/25 07:20:54;;;;;;;;;;;;;;;28.23;45.28;100822.66;4937852;28;19963;-71
2023/08/25 07:23:20;;;;;;;;;;;;;;;28.23;45.22;100825.34;4997810;28;19950;-71
2023/08/25 07:25:46;;;;;;;;;;;;;;;28.23;45.40;100817.31;4947572;28;19948;-66
2023/08/25 07:28:11;;;;;;;;;;;;;;;28.24;45.34;100811.72;5005436;28;19935;-66
2023/08/25 07:30:37;;;;;;;;;;;;;;;28.06;45.29;100779.75;4943505;28;20003;-67
2023/08/25 07:33:05;;;;;;;;;;;;;;;28.23;45.38;100804.72;4991626;28;19962;-67
2023/08/25 07:35:32;;;;;;;;;;;;;;;28.26;45.38;100804.28;4942646;28;20083;-67
2023/08/25 07:37:58;;;;;;;;;;;;;;;28.27;45.24;100792.53;4998564;28;19937;-68
2023/08/25 07:40:23;;;;;;;;;;;;;;;28.25;45.40;100794.63;4946687;28;20244;-65
2023/08/25 07:42:49;;;;;;;;;;;;;;;28.25;45.42;100805.34;4994427;28;20000;-64
2023/08/25 07:45:15;;;;;;;;;;;;;;;28.24;45.49;100802.88;4938600;28;20996;-64
2023/08/25 07:47:41;;;;;;;;;;;;;;;28.28;45.40;100799.50;4996622;28;19942;-67
2023/08/25 07:50:09;;;;;;;;;;;;;;;28.28;44.99;100814.75;4946884;28;19960;-67
2023/08/25 07:52:35;;;;;;;;;;;;;;;28.28;45.39;100804.84;5003243;28;19938;-67
2023/08/25 07:55:00;;;;;;;;;;;;;;;28.27;45.35;100805.09;4987920;28;19948;-66
2023/08/25 07:57:26;;;;;;;;;;;;;;;28.28;45.35;100799.50;5004040;28;20038;-66
2023/08/25 07:59:51;;;;;;;;;;;;;;;28.28;45.24;100799.50;4940322;28;19956;-68
2023/08/25 08:02:17;;;;;;;;;;;;;;;28.25;45.53;100802.66;4995309;28;20360;-68
2023/08/25 08:04:43;;;;;;;;;;;;;;;28.26;45.41;100811.50;4949984;28;20043;-69
2023/08/25 08:07:08;;;;;;;;;;;;;;;28.26;45.42;100817.66;4996465;28;20003;-68
2023/08/25 08:09:34;;;;;;;;;;;;;;;28.25;45.30;100805.34;4941965;28;20042;-67
2023/08/25 08:11:59;;;;;;;;;;;;;;;28.28;45.42;100801.38;4996896;28;20282;-68
2023/08/25 08:14:24;;;;;;;;;;;;;;;28.26;45.26;100795.44;4982652;28;19994;-68
2023/08/25 08:16:51;;;;;;;;;;;;;;;28.25;45.39;100785.75;4997695;28;20328;-68
2023/08/25 08:19:16;;;;;;;;;;;;;;;28.28;45.30;100783.44;4950706;28;20456;-68
2023/08/25 08:21:42;;;;;;;;;;;;;;;28.32;45.24;100774.91;4997615;28;20000;-68
2023/08/25 08:24:09;;;;;;;;;;;;;;;28.33;45.18;100779.22;4948765;28;20030;-67
2023/08/25 08:26:36;;;;;;;;;;;;;;;28.31;45.28;100774.09;5003119;28;20704;-69
2023/08/25 08:29:02;;;;;;;;;;;;;;;28.31;45.34;100778.66;4943830;28;20523;-68
2023/08/25 08:31:27;;;;;;;;;;;;;;;28.28;45.55;100775.41;4987857;28;19943;-68
2023/08/25 08:33:53;;;;;;;;;;;;;;;28.28;45.27;100791.47;4994992;28;20434;-67
2023/08/25 08:36:19;;;;;;;;;;;;;;;28.32;45.42;100788.31;4942344;28;21349;-68
2023/08/25 08:38:45;;;;;;;;;;;;;;;28.30;45.42;100785.88;5002502;28;19941;-68
2023/08/25 08:41:10;;;;;;;;;;;;;;;28.31;45.58;100792.84;4946744;28;20650;-68
2023/08/25 08:43:38;;;;;;;;;;;;;;;28.30;45.39;100801.94;4992250;28;19957;-68
2023/08/25 08:46:04;;;;;;;;;;;;;;;28.30;45.54;100807.28;4970945;28;20992;-68
2023/08/25 08:48:31;;;;;;;;;;;;;;;28.32;45.46;100801.69;4999313;28;20872;-68
2023/08/25 08:51:02;;;;;;;;;;;;;;;28.32;45.60;100802.50;4970331;28;19953;-69
2023/08/25 08:53:31;;;;;;;;;;;;;;;28.29;45.79;100800.31;5000973;28;19937;-66
2023/08/25 08:55:58;;;;;;;;;;;;;;;28.33;45.59;100801.47;4974572;28;19948;-66
2023/08/25 08:58:24;;;;;;;;;;;;;;;28.34;45.57;100805.75;5024009;28;19943;-66
2023/08/25 09:00:50;;;;;;;;;;;;;;;28.33;45.81;100808.69;4953295;28;20031;-68
2023/08/25 09:03:17;;;;;;;;;;;;;;;28.34;45.68;100810.31;5002758;28;20614;-69
2023/08/25 09:05:43;;;;;;;;;;;;;;;28.32;45.73;100813.22;4947920;28;20032;-69
2023/08/25 09:08:09;;;;;;;;;;;;;;;28.32;45.75;100809.72;5017035;28;20020;-69
2023/08/25 09:10:35;;;;;;;;;;;;;;;28.29;45.82;100824.41;4948247;28;20440;-69
2023/08/25 09:13:00;;;;;;;;;;;;;;;28.31;45.78;100818.81;4997994;28;20019;-68
2023/08/25 09:15:27;;;;;;;;;;;;;;;28.32;45.74;100825.81;5009731;28;19943;-68
2023/08/25 09:18:01;;;;;;;;;;;;;;;28.33;45.62;100828.25;4942776;28;20536;-65
2023/08/25 09:20:27;;;;;;;;;;;;;;;28.31;45.92;100830.34;5003711;28;20022;-64
2023/08/25 09:22:55;;;;;;;;;;;;;;;28.31;45.68;100837.56;4944531;28;19949;-65
2023/08/25 09:25:20;;;;;;;;;;;;;;;28.31;45.78;100834.88;5001265;28;20004;-64
2023/08/25 09:27:45;;;;;;;;;;;;;;;28.31;45.75;100841.06;4958781;28;19949;-67
2023/08/25 09:30:11;;;;;;;;;;;;;;;28.19;45.68;100818.84;5004498;28;19953;-67
2023/08/25 09:32:37;;;;;;;;;;;;;;;28.32;45.78;100834.66;4953328;28;19974;-67
2023/08/25 09:35:10;;;;;;;;;;;;;;;28.34;45.71;100827.19;4995865;28;20551;-66
2023/08/25 09:37:42;;;;;;;;;;;;;;;28.32;45.63;100831.97;4978529;28;20374;-64
2023/08/25 09:40:10;;;;;;;;;;;;;;;28.35;45.64;100830.69;4998960;28;19943;-65
2023/08/25 09:42:36;;;;;;;;;;;;;;;28.33;45.63;100828.25;4948650;28;20413;-64
2023/08/25 09:45:01;;;;;;;;;;;;;;;28.31;45.84;100825.00;4996490;28;19939;-65
2023/08/25 09:47:26;;;;;;;;;;;;;;;28.33;45.74;100832.78;4948384;28;19943;-67
2023/08/25 09:49:52;;;;;;;;;;;;;;;28.32;45.85;100823.13;5000974;28;19979;-66
2023/08/25 09:52:19;;;;;;;;;;;;;;;28.33;45.92;100830.09;4951687;28;19992;-64
2023/08/25 09:54:44;;;;;;;;;;;;;;;28.33;45.80;100838.13;4983697;28;19939;-64
2023/08/25 09:57:10;;;;;;;;;;;;;;;28.34;45.89;100837.09;5010651;28;20463;-64
2023/08/25 09:59:36;;;;;;;;;;;;;;;28.34;45.68;100842.44;4950911;28;19948;-66
2023/08/25 10:02:01;;;;;;;;;;;;;;;28.31;46.02;100825.00;4996067;28;19970;-64
2023/08/25 10:04:27;;;;;;;;;;;;;;;28.32;45.91;100829.28;4943771;28;19994;-64
2023/08/25 10:06:54;;;;;;;;;;;;;;;28.32;45.98;100826.63;5003360;28;20670;-64
2023/08/25 10:09:20;;;;;;;;;;;;;;;28.37;45.78;100825.91;4941007;28;19938;-64
2023/08/25 10:11:45;;;;;;;;;;;;;;;28.33;45.89;100825.56;4971722;28;20008;-69
2023/08/25 10:14:12;;;;;;;;;;;;;;;28.34;45.97;100818.34;4993987;28;20381;-70
2023/08/25 10:16:44;;;;;;;;;;;;;;;28.35;45.79;100817.28;4939529;28;19962;-70
2023/08/25 10:19:12;;;;;;;;;;;;;;;28.31;46.05;100818.81;5002946;28;20439;-69
2023/08/25 10:21:38;;;;;;;;;;;;;;;28.36;45.69;100818.91;4940192;28;20844;-64
2023/08/25 10:24:04;;;;;;;;;;;;;;;28.34;45.91;100821.84;5000601;28;19943;-65
2023/08/25 10:26:30;;;;;;;;;;;;;;;28.35;45.84;100820.78;4945459;28;20639;-70
2023/08/25 10:28:56;;;;;;;;;;;;;;;28.35;45.89;100826.13;5001100;28;19931;-69
2023/08/25 10:31:22;;;;;;;;;;;;;;;28.31;46.11;100818.81;4983165;28;19960;-65
2023/08/25 10:33:51;;;;;;;;;;;;;;;28.34;45.86;100821.03;4998677;28;19961;-65
2023/08/25 10:36:18;;;;;;;;;;;;;;;28.36;45.99;100825.09;4940057;28;24921;-64
2023/08/25 10:39:09;;;;;;;;;;;;;;;28.34;45.90;100826.38;4990399;28;19932;-64
2023/08/25 10:41:42;;;;;;;;;;;;;;;28.36;45.87;100830.44;4938559;28;20049;-65
2023/08/25 10:44:19;;;;;;;;;;;;;;;28.36;45.91;100818.91;4991537;28;19978;-65
2023/08/25 10:46:45;;;;;;;;;;;;;;;28.19;45.87;100797.41;4933853;28;19957;-70
2023/08/25 10:49:12;;;;;;;;;;;;;;;28.36;45.82;100811.69;5000958;28;19938;-70
2023/08/25 10:51:37;;;;;;;;;;;;;;;28.38;45.98;100814.16;4933242;28;19956;-68
2023/08/25 10:54:03;;;;;;;;;;;;;;;28.38;46.02;100811.50;4972793;28;19945;-68
2023/08/25 10:56:29;;;;;;;;;;;;;;;28.38;45.95;100812.28;4989617;28;19938;-67
2023/08/25 10:59:00;;;;;;;;;;;;;;;28.37;46.11;100820.53;4935311;28;20053;-70
2023/08/25 11:01:38;;;;;;;;;;;;;;;28.38;46.18;100822.19;4992025;28;19983;-70
2023/08/25 11:04:21;;;;;;;;;;;;;;;28.39;45.96;100816.59;4943373;28;20467;-68
2023/08/25 11:06:53;;;;;;;;;;;;;;;28.37;46.11;100815.19;4992469;28;19988;-67
2023/08/25 11:09:32;;;;;;;;;;;;;;;28.36;46.12;100806.34;4959475;28;19954;-68
2023/08/25 11:12:07;;;;;;;;;;;;;;;28.40;45.97;100812.06;4978429;28;19934;-68
2023/08/25 11:14:37;;;;;;;;;;;;;;;28.38;46.08;100812.28;4976058;28;19939;-64
2023/08/25 11:17:04;;;;;;;;;;;;;;;28.34;46.14;100808.44;4996621;28;19943;-63
2023/08/25 11:19:32;;;;;;;;;;;;;;;28.37;46.03;100804.47;4941485;28;20060;-64
2023/08/25 11:21:58;;;;;;;;;;;;;;;28.38;46.13;100804.25;4990868;28;20415;-63
2023/08/25 11:24:23;;;;;;;;;;;;;;;28.36;46.15;100811.69;4945668;28;20533;-64
2023/08/25 11:26:49;;;;;;;;;;;;;;;28.37;46.39;100810.66;5026258;28;20029;-64
2023/08/25 11:29:14;;;;;;;;;;;;;;;28.36;46.19;100806.34;4950380;28;19956;-65
2023/08/25 11:31:42;;;;;;;;;;;;;;;28.35;46.26;100807.38;4997846;28;20025;-65
2023/08/25 11:34:08;;;;;;;;;;;;;;;28.38;46.28;100804.25;4927594;28;19963;-65
2023/08/25 11:36:33;;;;;;;;;;;;;;;28.39;46.09;100805.06;4994807;28;19940;-64
2023/08/25 11:39:07;;;;;;;;;;;;;;;28.14;46.24;100773.19;4971014;28;19948;-70
2023/08/25 11:41:32;;;;;;;;;;;;;;;28.35;46.53;100811.94;4990289;28;19986;-64
2023/08/25 11:43:58;;;;;;;;;;;;;;;28.36;46.32;100798.31;4982552;28;19942;-64
2023/08/25 11:46:25;;;;;;;;;;;;;;;28.37;46.31;100805.31;4964479;28;20002;-65
2023/08/25 11:48:57;;;;;;;;;;;;;;;28.25;46.31;100780.41;4981105;28;19936;-64
2023/08/25 11:51:26;;;;;;;;;;;;;;;28.37;46.10;100802.63;4973336;28;20401;-71
2023/08/25 11:53:58;;;;;;;;;;;;;;;28.38;45.98;100796.22;4995288;28;20655;-70
2023/08/25 11:56:23;;;;;;;;;;;;;;;28.39;46.16;100805.06;4951744;28;20059;-68
2023/08/25 11:58:50;;;;;;;;;;;;;;;28.36;46.19;100800.97;4998813;28;19987;-67
2023/08/25 12:01:15;;;;;;;;;;;;;;;28.32;46.20;100799.84;4946184;28;19950;-64
2023/08/25 12:03:43;;;;;;;;;;;;;;;28.35;46.17;100798.53;5003899;28;20499;-64
2023/08/25 12:06:10;;;;;;;;;;;;;;;28.34;46.25;100799.59;4941931;28;19981;-65
2023/08/25 12:08:36;;;;;;;;;;;;;;;28.37;46.17;100793.75;5001952;28;19926;-65
2023/08/25 12:11:02;;;;;;;;;;;;;;;28.33;46.28;100792.63;4943543;28;19954;-65
2023/08/25 12:13:32;;;;;;;;;;;;;;;28.33;46.28;100796.09;5007272;28;20009;-65
2023/08/25 12:15:58;;;;;;;;;;;;;;;28.34;46.06;100802.28;4947479;28;19938;-67
2023/08/25 12:18:31;;;;;;;;;;;;;;;28.38;46.14;100806.13;4981592;28;19954;-67
2023/08/25 12:20:56;;;;;;;;;;;;;;;28.38;46.10;100800.78;4997554;28;20346;-68
2023/08/25 12:23:22;;;;;;;;;;;;;;;28.35;46.21;100799.34;4943289;28;19941;-68
2023/08/25 12:25:47;;;;;;;;;;;;;;;28.34;46.14;100805.75;4989771;28;19945;-67
2023/08/25 12:28:13;;;;;;;;;;;;;;;28.35;46.27;100803.91;4929218;28;20072;-64
2023/08/25 12:30:38;;;;;;;;;;;;;;;28.35;46.16;100802.03;4993618;28;20064;-66
2023/08/25 12:33:05;;;;;;;;;;;;;;;28.35;46.10;100790.50;4939334;28;20037;-67